createdAt,value
2018-08-13T00:01:22.111Z,65.29
2018-08-13T00:15:39.708Z,66.72
2018-08-13T00:18:08.504Z,66.91
2018-08-13T00:20:36.584Z,66.45
2018-08-13T00:23:04.703Z,67.08
2018-08-13T00:25:33.055Z,66.63
2018-08-13T00:28:01.134Z,66.59
2018-08-13T00:30:29.211Z,67.41
2018-08-13T00:32:57.264Z,67.14
2018-08-13T00:35:25.360Z,67.44
2018-08-13T00:37:53.437Z,67.25
2018-08-13T00:40:21.516Z,67.82
2018-08-13T00:42:49.564Z,67.81
2018-08-13T00:45:17.664Z,67.62
2018-08-13T00:47:45.734Z,68.23
2018-08-13T00:50:14.907Z,68.57
2018-08-13T00:52:43.255Z,67.90
2018-08-13T00:55:13.478Z,69.16
2018-08-13T00:57:41.544Z,69.09
2018-08-13T01:00:19.769Z,69.25
2018-08-13T01:02:48.166Z,68.28
2018-08-13T01:05:17.310Z,68.25
2018-08-13T01:07:45.357Z,68.31
2018-08-13T01:10:15.759Z,68.52
2018-08-13T01:12:44.203Z,68.62
2018-08-13T01:15:13.746Z,69.14
2018-08-13T01:17:43.214Z,68.73
2018-08-13T01:20:13.553Z,69.49
2018-08-13T01:22:41.629Z,68.97
2018-08-13T01:25:11.948Z,69.07
2018-08-13T01:27:40.317Z,69.26
2018-08-13T01:30:09.559Z,69.46
2018-08-13T01:32:37.608Z,69.23
2018-08-13T01:35:05.861Z,69.00
2018-08-13T01:37:33.953Z,69.59
2018-08-13T01:40:02.021Z,69.07
2018-08-13T01:42:30.089Z,69.82
2018-08-13T01:44:58.162Z,70.48
2018-08-13T01:47:26.229Z,71.74
2018-08-13T01:49:54.298Z,72.36
2018-08-13T01:52:22.355Z,72.13
2018-08-13T01:54:50.415Z,71.21
2018-08-13T01:57:18.464Z,72.19
2018-08-13T01:59:46.539Z,72.62
2018-08-13T02:02:14.756Z,71.73
2018-08-13T02:04:43.238Z,71.05
2018-08-13T02:07:11.447Z,70.90
2018-08-13T02:09:41.333Z,72.20
2018-08-13T02:12:10.224Z,72.33
2018-08-13T02:14:38.303Z,72.17
2018-08-13T02:17:06.498Z,71.61
2018-08-13T02:19:34.590Z,72.26
2018-08-13T02:22:02.647Z,72.53
2018-08-13T02:24:30.710Z,72.48
2018-08-13T02:26:58.864Z,72.25
2018-08-13T02:29:27.481Z,72.18
2018-08-13T02:31:56.119Z,72.04
2018-08-13T02:34:24.208Z,72.59
2018-08-13T02:36:52.333Z,72.94
2018-08-13T02:39:20.532Z,73.13
2018-08-13T02:41:48.555Z,74.10
2018-08-13T02:44:16.616Z,74.40
2018-08-13T02:46:44.712Z,74.24
2018-08-13T02:49:12.782Z,74.25
2018-08-13T02:51:40.869Z,73.21
2018-08-13T02:54:08.936Z,72.96
2018-08-13T02:56:37.017Z,72.79
2018-08-13T02:59:05.131Z,72.95
2018-08-13T03:01:33.224Z,74.01
2018-08-13T03:04:01.293Z,73.17
2018-08-13T03:06:29.381Z,72.77
2018-08-13T03:08:57.456Z,74.15
2018-08-13T03:11:25.535Z,73.13
2018-08-13T03:13:53.773Z,74.17
2018-08-13T03:16:21.845Z,74.79
2018-08-13T03:18:49.947Z,74.19
2018-08-13T03:21:18.369Z,75.12
2018-08-13T03:23:46.435Z,76.06
2018-08-13T03:26:14.501Z,75.97
2018-08-13T03:28:42.535Z,75.83
2018-08-13T03:31:10.599Z,76.25
2018-08-13T03:33:38.720Z,75.35
2018-08-13T03:36:06.861Z,74.84
2018-08-13T03:38:34.914Z,74.49
2018-08-13T03:41:03.194Z,74.35
2018-08-13T03:43:31.249Z,74.71
2018-08-13T03:45:59.307Z,74.23
2018-08-13T03:48:27.355Z,74.53
2018-08-13T03:50:55.415Z,75.50
2018-08-13T03:53:23.476Z,76.35
2018-08-13T03:55:51.547Z,75.71
2018-08-13T03:58:19.650Z,75.54
2018-08-13T04:00:47.711Z,75.65
2018-08-13T04:03:15.791Z,76.05
2018-08-13T04:05:43.884Z,76.12
2018-08-13T04:08:12.013Z,75.78
2018-08-13T04:10:40.095Z,75.49
2018-08-13T04:13:08.151Z,75.11
2018-08-13T04:15:36.212Z,76.26
2018-08-13T04:18:04.451Z,76.34
2018-08-13T04:20:32.544Z,76.16
2018-08-13T04:23:00.631Z,76.40
2018-08-13T04:25:28.689Z,76.90
2018-08-13T04:27:56.755Z,76.28
2018-08-13T04:30:24.810Z,76.12
2018-08-13T04:32:52.897Z,75.91
2018-08-13T04:35:20.951Z,76.59
2018-08-13T04:37:49.016Z,76.18
2018-08-13T04:40:18.076Z,75.52
2018-08-13T04:42:47.076Z,75.88
2018-08-13T04:45:15.141Z,75.70
2018-08-13T04:47:51.469Z,75.00
2018-08-13T04:50:19.587Z,74.14
2018-08-13T04:52:47.800Z,74.35
2018-08-13T04:55:15.959Z,74.48
2018-08-13T04:57:44.132Z,73.82
2018-08-13T05:00:12.208Z,72.80
2018-08-13T05:02:40.315Z,71.07
2018-08-13T05:05:09.747Z,69.73
2018-08-13T05:07:37.950Z,67.13
2018-08-13T05:10:07.320Z,66.33
2018-08-13T05:12:35.381Z,65.46
2018-08-13T05:15:03.820Z,65.48
2018-08-13T05:17:31.899Z,65.56
2018-08-13T05:19:59.983Z,64.76
2018-08-13T05:22:28.048Z,65.63
2018-08-13T05:24:56.108Z,64.79
2018-08-13T05:27:24.179Z,63.61
2018-08-13T05:29:52.254Z,64.04
2018-08-13T05:32:20.390Z,64.31
2018-08-13T05:34:48.442Z,63.36
2018-08-13T05:37:16.553Z,65.65
2018-08-13T05:39:44.610Z,65.17
2018-08-13T05:42:12.702Z,62.53
2018-08-13T05:44:40.804Z,62.76
2018-08-13T05:47:08.895Z,62.59
2018-08-13T05:49:36.970Z,62.77
2018-08-13T05:52:05.090Z,62.53
2018-08-13T05:54:33.173Z,63.50
2018-08-13T05:57:01.244Z,63.79
2018-08-13T05:59:29.306Z,65.14
2018-08-13T06:01:57.396Z,64.42
2018-08-13T06:04:25.490Z,65.48
2018-08-13T06:06:53.559Z,65.13
2018-08-13T06:09:21.636Z,66.39
2018-08-13T06:11:49.791Z,66.58
2018-08-13T06:14:17.873Z,67.17
2018-08-13T06:16:45.958Z,65.29
2018-08-13T06:19:14.161Z,65.45
2018-08-13T06:21:42.255Z,70.73
2018-08-13T06:24:10.379Z,72.11
2018-08-13T06:26:38.417Z,72.80
2018-08-13T06:29:06.686Z,75.62
2018-08-13T06:31:34.796Z,81.07
2018-08-13T06:34:02.872Z,84.21
2018-08-13T06:36:30.998Z,83.94
2018-08-13T06:38:59.107Z,85.84
2018-08-13T06:41:27.168Z,84.26
2018-08-13T06:43:55.293Z,86.45
2018-08-13T06:46:23.311Z,85.98
2018-08-13T06:48:51.595Z,86.60
2018-08-13T06:51:19.650Z,84.73
2018-08-13T06:53:47.769Z,85.24
2018-08-13T06:56:15.803Z,85.42
2018-08-13T06:58:43.866Z,86.01
2018-08-13T07:01:11.921Z,86.15
2018-08-13T07:03:40.003Z,86.08
2018-08-13T07:06:08.116Z,87.07
2018-08-13T07:08:36.185Z,88.67
2018-08-13T07:11:04.343Z,88.16
2018-08-13T07:13:32.412Z,87.71
2018-08-13T07:16:00.505Z,89.45
2018-08-13T07:18:28.609Z,88.06
2018-08-13T07:20:56.712Z,88.94
2018-08-13T07:23:31.331Z,87.55
2018-08-13T07:25:59.432Z,87.67
2018-08-13T07:28:27.494Z,88.00
2018-08-13T07:30:55.566Z,88.91
2018-08-13T07:33:23.672Z,88.11
2018-08-13T07:35:51.728Z,88.08
2018-08-13T07:38:19.948Z,88.69
2018-08-13T07:40:48.075Z,87.78
2018-08-13T07:43:16.084Z,88.00
2018-08-13T07:45:44.163Z,88.70
2018-08-13T07:48:12.224Z,88.68
2018-08-13T07:50:40.334Z,87.98
2018-08-13T07:53:08.384Z,90.33
2018-08-13T07:55:36.444Z,91.24
2018-08-13T07:58:04.642Z,90.78
2018-08-13T08:00:32.713Z,89.88
2018-08-13T08:03:00.799Z,89.13
2018-08-13T08:05:28.860Z,89.19
2018-08-13T08:07:56.929Z,89.03
2018-08-13T08:10:25.012Z,88.70
2018-08-13T08:12:53.134Z,88.99
2018-08-13T08:15:21.211Z,89.04
2018-08-13T08:17:49.295Z,88.94
2018-08-13T08:20:17.468Z,88.43
2018-08-13T08:22:45.601Z,88.45
2018-08-13T08:25:17.252Z,89.53
2018-08-13T08:27:45.644Z,88.44
2018-08-13T08:30:13.963Z,88.96
2018-08-13T08:32:42.027Z,89.65
2018-08-13T08:35:12.568Z,89.23
2018-08-13T08:37:40.832Z,89.69
2018-08-13T08:40:10.807Z,89.39
2018-08-13T08:42:38.875Z,89.05
2018-08-13T08:45:11.652Z,88.61
2018-08-13T08:47:39.747Z,87.60
2018-08-13T08:50:08.067Z,85.73
2018-08-13T08:52:36.278Z,84.92
2018-08-13T08:55:05.597Z,86.24
2018-08-13T08:57:33.684Z,86.42
2018-08-13T09:00:01.821Z,86.42
2018-08-13T09:02:29.932Z,86.39
2018-08-13T09:04:58.019Z,85.76
2018-08-13T09:07:26.075Z,85.87
2018-08-13T09:09:54.136Z,87.07
2018-08-13T09:12:22.199Z,86.14
2018-08-13T09:14:50.271Z,87.18
2018-08-13T09:17:18.374Z,87.83
2018-08-13T09:19:57.902Z,87.75
2018-08-13T09:22:37.292Z,86.82
2018-08-13T09:25:16.744Z,88.78
2018-08-13T09:27:56.089Z,88.55
2018-08-13T09:30:35.458Z,89.49
2018-08-13T09:33:15.175Z,87.95
2018-08-13T09:35:43.335Z,87.63
2018-08-13T09:38:11.403Z,86.95
2018-08-13T09:40:39.542Z,85.46
2018-08-13T09:43:07.613Z,84.40
2018-08-13T09:45:35.697Z,85.55
2018-08-13T09:48:04.091Z,85.19
2018-08-13T09:50:32.202Z,85.40
2018-08-13T09:53:00.278Z,83.92
2018-08-13T09:55:28.393Z,83.85
2018-08-13T09:57:56.485Z,83.45
2018-08-13T10:00:30.008Z,84.02
2018-08-13T10:02:58.036Z,84.76
2018-08-13T10:05:26.260Z,85.22
2018-08-13T10:07:54.415Z,85.37
2018-08-13T10:10:22.575Z,85.29
2018-08-13T10:12:50.764Z,83.46
2018-08-13T10:15:18.897Z,81.34
2018-08-13T10:17:47.023Z,80.79
2018-08-13T10:20:19.168Z,80.91
2018-08-13T10:22:47.384Z,80.83
2018-08-13T10:25:15.461Z,81.91
2018-08-13T10:27:43.595Z,83.22
2018-08-13T10:30:13.026Z,85.49
2018-08-13T10:32:41.583Z,85.62
2018-08-13T10:35:10.060Z,85.37
2018-08-13T10:37:38.851Z,86.84
2018-08-13T10:40:09.458Z,87.62
2018-08-13T10:42:37.902Z,86.98
2018-08-13T10:45:06.124Z,86.47
2018-08-13T10:47:34.211Z,86.97
2018-08-13T10:50:02.395Z,87.71
2018-08-13T10:52:30.470Z,87.58
2018-08-13T10:54:58.562Z,87.77
2018-08-13T10:57:26.623Z,88.07
2018-08-13T10:59:54.763Z,87.54
2018-08-13T11:02:22.849Z,87.71
2018-08-13T11:04:50.923Z,88.31
2018-08-13T11:07:19.004Z,87.12
2018-08-13T11:09:47.069Z,87.04
2018-08-13T11:12:15.219Z,87.40
2018-08-13T11:14:43.284Z,86.85
2018-08-13T11:17:11.432Z,87.35
2018-08-13T11:19:39.595Z,89.75
2018-08-13T11:22:07.658Z,90.50
2018-08-13T11:24:35.723Z,90.25
2018-08-13T11:27:03.778Z,89.05
2018-08-13T11:29:31.846Z,88.96
2018-08-13T11:31:59.905Z,89.00
2018-08-13T11:34:27.951Z,90.45
2018-08-13T11:36:56.026Z,91.21
2018-08-13T11:39:24.091Z,90.92
2018-08-13T11:41:52.413Z,91.03
2018-08-13T11:44:20.456Z,90.74
2018-08-13T11:46:48.545Z,91.15
2018-08-13T11:49:16.631Z,91.41
2018-08-13T11:51:44.718Z,90.84
2018-08-13T11:54:12.824Z,91.67
2018-08-13T11:56:40.891Z,92.14
2018-08-13T11:59:08.952Z,92.21
2018-08-13T12:01:37.030Z,92.86
2018-08-13T12:04:05.100Z,92.92
2018-08-13T12:06:33.158Z,91.39
2018-08-13T12:09:01.224Z,92.06
2018-08-13T12:11:29.300Z,92.64
2018-08-13T12:13:57.340Z,91.73
2018-08-13T12:16:25.400Z,91.10
2018-08-13T12:18:53.487Z,91.10
2018-08-13T12:21:21.602Z,91.59
2018-08-13T12:23:49.630Z,90.86
2018-08-13T12:26:17.705Z,90.46
2018-08-13T12:28:45.762Z,90.84
2018-08-13T12:31:13.806Z,91.36
2018-08-13T12:33:41.861Z,91.83
2018-08-13T12:36:09.920Z,91.47
2018-08-13T12:38:38.020Z,92.02
2018-08-13T12:41:06.171Z,93.04
2018-08-13T12:43:34.193Z,92.29
2018-08-13T12:46:02.268Z,91.63
2018-08-13T12:48:30.328Z,91.43
2018-08-13T12:50:58.439Z,90.86
2018-08-13T12:53:26.439Z,89.85
2018-08-13T12:55:54.487Z,90.06
2018-08-13T12:58:22.553Z,90.61
2018-08-13T13:00:55.867Z,90.32
2018-08-13T13:03:23.991Z,87.99
2018-08-13T13:05:52.050Z,87.34
2018-08-13T13:08:20.111Z,86.15
2018-08-13T13:10:48.193Z,87.26
2018-08-13T13:13:16.256Z,87.12
2018-08-13T13:15:44.334Z,85.46
2018-08-13T13:18:12.457Z,84.13
2018-08-13T13:20:40.566Z,83.25
2018-08-13T13:23:08.636Z,83.11
2018-08-13T13:25:36.695Z,85.98
2018-08-13T13:28:04.790Z,84.79
2018-08-13T13:30:32.911Z,84.93
2018-08-13T13:33:00.998Z,84.96
2018-08-13T13:35:29.043Z,84.28
2018-08-13T13:37:57.108Z,84.64
2018-08-13T13:40:25.264Z,83.68
2018-08-13T13:42:53.235Z,85.05
2018-08-13T13:45:21.278Z,83.34
2018-08-13T13:47:49.351Z,82.34
2018-08-13T13:50:18.527Z,82.73
2018-08-13T13:52:46.673Z,84.52
2018-08-13T13:55:15.084Z,82.81
2018-08-13T13:57:43.356Z,80.00
2018-08-13T14:00:17.380Z,77.80
2018-08-13T14:02:46.267Z,78.72
2018-08-13T14:05:14.407Z,77.47
2018-08-13T14:07:42.550Z,77.11
2018-08-13T14:10:13.119Z,77.21
2018-08-13T14:12:41.176Z,77.22
2018-08-13T14:15:11.080Z,76.78
2018-08-13T14:17:39.236Z,77.48
2018-08-13T14:20:08.199Z,75.01
2018-08-13T14:22:36.266Z,76.93
2018-08-13T14:25:05.359Z,75.90
2018-08-13T14:27:33.435Z,75.57
2018-08-13T14:30:01.524Z,76.04
2018-08-13T14:32:29.772Z,76.83
2018-08-13T14:34:57.831Z,78.02
2018-08-13T14:37:25.907Z,77.52
2018-08-13T14:39:54.075Z,76.64
2018-08-13T14:42:22.041Z,77.29
2018-08-13T14:44:50.111Z,78.04
2018-08-13T14:47:18.164Z,78.40
2018-08-13T14:49:46.216Z,77.79
2018-08-13T14:52:14.279Z,77.31
2018-08-13T14:54:42.342Z,76.63
2018-08-13T14:57:10.376Z,78.67
2018-08-13T14:59:38.455Z,77.52
2018-08-13T15:02:06.528Z,78.30
2018-08-13T15:04:34.634Z,77.99
2018-08-13T15:07:02.911Z,77.34
2018-08-13T15:09:31.291Z,76.60
2018-08-13T15:11:59.370Z,76.95
2018-08-13T15:14:27.439Z,74.61
2018-08-13T15:19:56.934Z,71.42
2018-08-13T15:22:25.054Z,72.30
2018-08-13T15:24:53.150Z,72.09
2018-08-13T15:27:21.358Z,71.68
2018-08-13T15:29:49.308Z,70.72
2018-08-13T15:32:17.400Z,69.83
2018-08-13T15:34:45.460Z,71.15
2018-08-13T15:37:13.574Z,71.40
2018-08-13T15:39:41.628Z,71.60
2018-08-13T15:42:09.708Z,69.48
2018-08-13T15:44:37.756Z,69.89
2018-08-13T15:47:05.919Z,69.77
2018-08-13T15:49:34.120Z,68.37
2018-08-13T15:52:02.263Z,69.87
2018-08-13T15:54:30.347Z,67.61
2018-08-13T15:56:58.692Z,67.67
2018-08-13T15:59:26.960Z,68.95
2018-08-13T16:01:57.072Z,67.69
2018-08-13T16:04:26.141Z,68.15
2018-08-13T16:06:55.295Z,66.92
2018-08-13T16:09:24.863Z,67.72
2018-08-13T16:11:53.248Z,67.84
2018-08-13T16:14:22.985Z,67.88
2018-08-13T16:16:51.345Z,67.48
2018-08-13T16:19:20.652Z,67.70
2018-08-13T16:21:49.474Z,67.58
2018-08-13T16:24:18.904Z,67.56
2018-08-13T16:26:52.268Z,65.50
2018-08-13T16:29:22.882Z,65.25
2018-08-13T16:31:51.474Z,66.66
2018-08-13T16:34:19.887Z,67.20
2018-08-13T16:48:50.078Z,66.52
2018-08-13T16:51:18.126Z,67.36
2018-08-13T16:53:46.207Z,67.58
2018-08-13T16:56:14.368Z,67.96
2018-08-13T16:58:42.431Z,66.57
2018-08-13T17:01:10.542Z,67.23
2018-08-13T17:03:38.643Z,66.23
2018-08-13T17:06:06.707Z,67.27
2018-08-13T17:08:34.771Z,67.48
2018-08-13T17:11:05.811Z,66.44
2018-08-13T17:13:33.955Z,67.34
2018-08-13T17:16:02.019Z,67.62
2018-08-13T17:18:30.083Z,66.50
2018-08-13T17:20:58.192Z,67.29
2018-08-13T17:23:26.260Z,66.90
2018-08-13T17:25:54.359Z,67.17
2018-08-13T17:28:22.506Z,67.31
2018-08-13T17:30:57.087Z,69.02
2018-08-13T17:33:25.200Z,68.95
2018-08-13T17:35:53.288Z,70.06
2018-08-13T17:38:21.592Z,70.43
2018-08-13T17:40:49.691Z,71.10
2018-08-13T17:43:17.851Z,71.37
2018-08-13T17:45:45.835Z,70.90
2018-08-13T17:48:13.895Z,71.61
2018-08-13T17:50:41.981Z,71.58
2018-08-13T17:53:10.703Z,71.45
2018-08-13T17:55:38.839Z,72.05
2018-08-13T17:58:06.990Z,72.57
2018-08-13T18:00:35.094Z,72.82
2018-08-13T18:03:03.203Z,72.99
2018-08-13T18:05:31.322Z,73.69
2018-08-13T18:07:59.495Z,73.49
2018-08-13T18:10:29.202Z,73.49
2018-08-13T18:12:58.615Z,72.88
2018-08-13T18:15:26.720Z,74.28
2018-08-13T18:17:54.839Z,73.18
2018-08-13T18:20:22.904Z,67.45
2018-08-13T18:22:50.978Z,64.17
2018-08-13T18:25:19.106Z,64.79
2018-08-13T18:27:48.472Z,65.50
2018-08-13T18:30:18.160Z,65.61
2018-08-13T18:32:46.219Z,71.88
2018-08-13T18:35:14.549Z,72.99
2018-08-13T18:37:42.812Z,73.51
2018-08-13T18:40:16.440Z,75.39
2018-08-13T18:42:44.630Z,75.99
2018-08-13T18:45:12.806Z,78.44
2018-08-13T18:47:40.895Z,78.15
2018-08-13T18:50:11.270Z,78.72
2018-08-13T18:52:39.496Z,78.23
2018-08-13T18:55:08.162Z,77.00
2018-08-13T18:57:36.283Z,76.39
2018-08-13T19:00:07.242Z,76.48
2018-08-13T19:02:35.372Z,77.44
2018-08-13T19:05:03.416Z,78.85
2018-08-13T19:07:31.542Z,79.10
2018-08-13T19:09:59.619Z,79.86
2018-08-13T19:12:27.701Z,79.82
2018-08-13T19:14:55.799Z,80.62
2018-08-13T19:17:23.975Z,80.50
2018-08-13T19:19:52.053Z,80.36
2018-08-13T19:22:23.409Z,80.09
2018-08-13T19:24:51.515Z,78.48
2018-08-13T19:27:19.691Z,77.82
2018-08-13T19:29:47.781Z,77.48
2018-08-13T19:32:15.915Z,78.06
2018-08-13T19:34:43.991Z,78.19
2018-08-13T19:37:12.085Z,78.36
2018-08-13T19:39:40.188Z,77.71
2018-08-13T19:42:10.358Z,76.87
2018-08-13T19:44:39.105Z,78.21
2018-08-13T19:47:07.574Z,77.52
2018-08-13T19:49:36.073Z,76.18
2018-08-13T19:52:09.125Z,76.91
2018-08-13T19:54:37.809Z,75.84
2018-08-13T19:57:06.876Z,77.84
2018-08-13T19:59:35.870Z,78.22
2018-08-13T20:02:04.128Z,78.15
2018-08-13T20:04:32.801Z,77.90
2018-08-13T20:07:00.985Z,78.19
2018-08-13T20:09:29.232Z,78.84
2018-08-13T20:12:00.915Z,78.24
2018-08-13T20:14:29.264Z,80.14
2018-08-13T20:16:58.949Z,79.57
2018-08-13T20:19:29.435Z,80.40
2018-08-13T20:21:57.889Z,80.38
2018-08-13T20:24:29.338Z,80.51
2018-08-13T20:26:58.093Z,80.42
2018-08-13T20:29:27.474Z,81.76
2018-08-13T20:31:55.716Z,81.28
2018-08-13T20:34:23.911Z,82.32
2018-08-13T20:36:52.202Z,82.43
2018-08-13T20:39:20.384Z,81.89
2018-08-13T20:41:48.629Z,82.74
2018-08-13T20:44:17.232Z,82.53
2018-08-13T20:46:46.107Z,82.94
2018-08-13T20:49:14.301Z,82.23
2018-08-13T20:51:43.758Z,82.09
2018-08-13T20:54:12.401Z,82.09
2018-08-13T20:59:21.072Z,81.93
2018-08-13T21:01:49.280Z,81.38
2018-08-13T21:04:18.604Z,81.75
2018-08-13T21:06:47.387Z,82.60
2018-08-13T21:09:16.657Z,81.54
2018-08-13T21:11:44.827Z,82.99
2018-08-13T21:14:13.840Z,82.04
2018-08-13T21:16:42.534Z,81.90
2018-08-13T21:19:10.786Z,81.82
2018-08-13T21:21:39.309Z,82.67
2018-08-13T21:24:07.530Z,82.38
2018-08-13T21:26:35.887Z,82.08
2018-08-13T21:29:04.183Z,83.40
2018-08-13T21:31:32.486Z,82.37
2018-08-13T21:34:00.729Z,82.32
2018-08-13T21:36:29.120Z,82.50
2018-08-13T21:38:57.390Z,82.80
2018-08-13T21:41:25.857Z,83.64
2018-08-13T21:43:56.406Z,83.25
2018-08-13T21:46:24.751Z,83.16
2018-08-13T21:48:53.352Z,83.13
2018-08-13T21:51:21.709Z,82.55
2018-08-13T21:53:50.150Z,83.24
2018-08-13T21:56:18.317Z,82.74
2018-08-13T21:58:47.195Z,83.66
2018-08-13T22:01:20.969Z,83.91
2018-08-13T22:03:50.935Z,85.01
2018-08-13T22:06:19.192Z,84.81
2018-08-13T22:08:47.594Z,84.19
2018-08-13T22:11:15.997Z,85.12
2018-08-13T22:13:44.529Z,84.81
2018-08-13T22:16:12.772Z,85.30
2018-08-13T22:18:41.071Z,84.68
2018-08-13T22:21:09.371Z,85.15
2018-08-13T22:23:47.569Z,85.28
2018-08-13T22:26:15.776Z,85.56
2018-08-13T22:28:44.050Z,86.26
2018-08-13T22:31:13.648Z,86.40
2018-08-13T22:33:41.719Z,86.08
2018-08-13T22:36:09.882Z,86.44
2018-08-13T22:38:37.978Z,86.39
2018-08-13T22:41:06.421Z,86.77
2018-08-13T22:43:34.527Z,86.45
2018-08-13T22:46:02.601Z,87.32
2018-08-13T22:48:30.845Z,87.50
2018-08-13T22:50:58.939Z,86.87
2018-08-13T22:53:27.048Z,87.35
2018-08-13T22:55:55.183Z,87.82
2018-08-13T22:58:23.283Z,87.72
2018-08-13T23:00:51.432Z,87.75
2018-08-13T23:03:19.640Z,88.23
2018-08-13T23:05:47.727Z,87.87
2018-08-13T23:08:15.817Z,87.69
2018-08-13T23:10:43.864Z,87.14
2018-08-13T23:13:16.235Z,86.52
2018-08-13T23:15:44.311Z,87.35
2018-08-13T23:18:12.376Z,86.94
2018-08-13T23:20:40.464Z,87.65
2018-08-13T23:23:08.812Z,87.43
2018-08-13T23:25:37.496Z,87.14
2018-08-13T23:28:07.738Z,87.85
2018-08-13T23:30:35.805Z,86.82
2018-08-13T23:33:04.057Z,87.02
2018-08-13T23:35:32.612Z,86.29
2018-08-13T23:38:00.662Z,87.12
2018-08-13T23:40:28.886Z,87.46
2018-08-13T23:42:57.028Z,87.16
2018-08-13T23:45:27.630Z,86.39
2018-08-13T23:47:55.711Z,87.02
2018-08-13T23:50:24.770Z,87.69
2018-08-13T23:52:54.832Z,88.21
2018-08-13T23:55:26.636Z,87.41
2018-08-13T23:57:54.954Z,88.28
